Tiempo atmosférico en la estación meteorológica de San Pedro Manrique, Soria (1096 m.)



Fecha
DESCASC
Temp. máxima en grados centígrados (hora)
DESCASC
Temp. mínima en grados centígrados (hora)
DESCASC
Temp. media en grados centígrados
DESCASC
Racha de viento máxima en m/sg (hora)
DESCASC
Velocidad máxima media en intervalos de 10 minutos(hora)
DESCASC
Precipitaciones diarias en mm
DESCASC
Precipitaciones de 00:00 a 06:00 en mm
DESCASC
Precipitaciones de 06:00 a 12:00 en mm
DESCASC
Precipitaciones de 12:00 a 18:00 en mm
DESCASC
Precipitaciones de 18:00 a 24:00 en mm
DESCASC
28-10-2019 21 (14:50) 7.3 (00:00) 14.2 5.83 (15:00) 3.33 (17:50) 0 0 0 0 0
01-11-2019 18.5 (12:20) 9 (00:00) 13.8 10.83 (13:30) 6.11 (13:30) 0 0 0 0 0
31-10-2019 17.1 (14:40) 9 (23:59) 13.1 9.17 (13:30) 4.44 (13:40) 0 0 0 0 0
02-11-2019 15.1 (12:50) 9.8 (00:00) 12.5 17.78 (23:30) 10.83 (23:59) 0 0 0 0 0
29-10-2019 19.5 (13:50) 5.6 (00:00) 12.5 5.56 (14:00) 3.33 (16:20) 0 0 0 0 0
19-10-2019 15.2 (16:00) 9.7 (00:00) 12.4 12.5 (21:10) 6.39 (15:30) 0.4 0 0 0 0.4
27-10-2019 20.3 (13:40) 2.5 (00:00) 11.4 4.72 (13:20) 2.78 (11:40) 0 0 0 0 0
26-10-2019 20.7 (16:10) 1.9 (00:00) 11.3 6.39 (14:00) 3.89 (13:20) 0 0 0 0 0
25-10-2019 19.5 (16:30) 2.3 (00:00) 10.9 7.78 (15:10) 3.89 (15:20) 0 0 0 0 0
24-10-2019 14.4 (15:20) 5.2 (00:00) 9.8 6.94 (13:10) 3.89 (13:10) 0 0 0 0 0
30-10-2019 16.8 (13:20) 2.6 (00:00) 9.7 8.61 (14:00) 5.28 (14:30) 0 0 0 0 0
03-11-2019 12.1 (14:30) 6.8 (00:00) 9.5 18.06 (00:10) 11.11 (00:10) 0.4 0 0.4 0 0
04-11-2019 13.2 (15:00) 5.7 (00:00) 9.4 17.78 (04:50) 10.28 (11:50) 0 0 0 0 0
20-10-2019 13 (14:20) 4.8 (00:00) 8.9 13.06 (02:30) 7.5 (02:40) 0 0 0 0 0
23-10-2019 10.2 (13:30) 5.9 (00:00) 8 8.33 (17:10) 4.17 (17:30) 0.8 0 0.4 0.2 0.2
06-11-2019 10.5 (14:40) 4.9 (00:00) 7.7 12.5 (03:40) 7.78 (03:10) 0 0 0 0 0
05-11-2019 10.1 (14:00) 3.4 (00:00) 6.8 15 (17:50) 8.89 (16:30) 0 0 0 0 0
13-11-2019 8.5 (15:50) 4.4 (00:00) 6.5 17.5 (23:20) 8.89 (12:10) 0.8 0.6 0.2 0 0
21-10-2019 12.1 (15:00) 0.7 (00:00) 6.4 7.22 (16:50) 3.61 (16:50) 0 0 0 0 0
12-11-2019 9.2 (15:30) 2.3 (00:00) 5.7 11.39 (04:30) 6.11 (13:10) 0 0 0 0 0
09-11-2019 8.4 (15:20) 1.5 (00:00) 4.9 13.33 (23:50) 8.33 (23:59) 1.4 0 0 0 1.4
11-11-2019 8.1 (13:10) 0.6 (02:50) 4.4 16.39 (14:10) 9.72 (14:10) 1.2 0 0.2 1 0
07-11-2019 8.2 (14:00) 0.3 (00:00) 4.2 12.78 (13:40) 7.5 (17:20) 0 0 0 0 0
14-11-2019 7.3 (00:00) 0.4 (00:00) 3.9 16.11 (04:40) 8.06 (01:50) 1.8 1.8 0 0 0
08-11-2019 6.8 (12:10) -0.3 (02:40) 3.3 14.17 (15:20) 9.17 (06:30) 0.2 0 0 0.2 0
22-10-2019 6.9 (11:20) -0.6 (03:40) 3.2 12.5 (17:00) 6.11 (17:10) 0 0 0 0 0
10-11-2019 3.2 (14:40) 0.4 (00:00) 1.8 17.78 (02:10) 11.39 (02:10) 0 0 0 0 0
15-11-2019 3.9 (12:30) -1.5 (-00:0) 1.2 11.11 (14:50) 6.39 (14:50) 0 0 0 0 0
16-11-2019 5.7 (15:40) -3.3 (-00:0) 1.2 8.06 (15:50) 5 (16:00) 0 0 0 0 0
18-10-2019 -- (--) -- (--) -- -- (--) -- (--) -- 0 -- 0 0

Gráficas

Temp. máximas Temp. mínimas Temp. medias Precipitaciones Rachas de viento máximas Velocidades máximas media en intervalos de 10 minutos

Datos horarios

Fecha y hora oficial Temperatura (ºC) Velocidad del viento (km/h) Dirección del viento Racha (km/h) Dirección de racha Precipitación (mm) Presión (hPa) Tendencia (hPa) Humedad (%)
2019-11-16 23:00:00 1.2 6 Oeste 13 Sudoeste 0 -- -- 70
2019-11-16 22:00:00 0.9 4 Sudoeste 14 Oeste 0 -- -- 77
2019-11-16 21:00:00 1.8 6 Oeste 19 Oeste 0 -- -- 74
2019-11-16 20:00:00 2 7 Oeste 14 Oeste 0 -- -- 72
2019-11-16 19:00:00 2.2 6 Sudoeste 14 Sudoeste 0 -- -- 71
2019-11-16 18:00:00 2.3 5 Sudoeste 17 Oeste 0 -- -- 72
2019-11-16 17:00:00 3.7 7 Oeste 27 Oeste 0 -- -- 67
2019-11-16 16:00:00 5.2 18 Oeste 29 Oeste 0 -- -- 60
2019-11-16 15:00:00 3.9 9 Sudoeste 25 Sudoeste 0 -- -- 66
2019-11-16 14:00:00 2.8 10 Sudoeste 22 Sudoeste 0 -- -- 73
2019-11-16 13:00:00 3.4 8 Sudoeste 17 Sudoeste 0 -- -- 65
2019-11-16 12:00:00 3.3 3 Sur 17 Sudoeste 0 -- -- 68
2019-11-16 11:00:00 2.2 7 Sudoeste 20 Oeste 0 -- -- 70
2019-11-16 10:00:00 1.4 9 Sur 23 Sudoeste 0 -- -- 69
2019-11-16 09:00:00 -0.4 8 Noroeste 15 Oeste 0 -- -- 79
2019-11-16 08:00:00 -2.9 0 Calma 9 Sur 0 -- -- 83
2019-11-16 07:00:00 -3.2 0 Calma 6 Este 0 -- -- 85
2019-11-16 06:00:00 -2.7 0 Calma 13 Oeste 0 -- -- 83
2019-11-16 05:00:00 -2.3 3 Noroeste 10 Noroeste 0 -- -- 81
2019-11-16 04:00:00 -1.7 0 Calma 14 Oeste 0 -- -- 81
2019-11-16 03:00:00 -0.8 7 Noroeste 14 Noroeste 0 -- -- 80
2019-11-16 02:00:00 -0.7 3 Noroeste 17 Oeste 0 -- -- 82
2019-11-16 01:00:00 -0.2 4 Noroeste 12 Oeste 0 -- -- 80
2019-11-16 00:00:00 0.2 3 Sudoeste 8 Noroeste 0 -- -- 80
2019-11-15 23:00:00 0.7 2 Este 5 Nordeste 0 -- -- 80
2019-11-15 22:00:00 0.9 5 Nordeste 16 Nordeste 0 -- -- 81
2019-11-15 21:00:00 0.9 8 Noroeste 15 Oeste 0 -- -- 81
2019-11-15 20:00:00 0.8 6 Noroeste 15 Oeste 0 -- -- 83
2019-11-15 19:00:00 1.2 9 Oeste 13 Oeste 0 -- -- 81
2019-11-15 18:00:00 1.6 6 Sudoeste 11 Nordeste 0 -- -- 80
2019-11-15 17:00:00 1.7 9 Oeste 21 Oeste 0 -- -- 79
2019-11-15 16:00:00 2.1 2 Oeste 24 Oeste 0 -- -- 82
2019-11-15 15:00:00 1.2 17 Oeste 40 Oeste 0 -- -- 87
2019-11-15 14:00:00 1.5 14 Noroeste 26 Noroeste 0 -- -- 84
2019-11-15 13:00:00 2.7 19 Oeste 37 Oeste 0 -- -- 75
2019-11-15 12:00:00 3.4 12 Oeste 34 Sudoeste 0 -- -- 74
2019-11-15 11:00:00 1.8 17 Oeste 27 Oeste 0 -- -- 79
2019-11-15 10:00:00 1.6 16 Oeste 31 Oeste 0 -- -- 79
2019-11-15 09:00:00 0.8 19 Oeste 35 Oeste 0 -- -- 80
2019-11-15 08:00:00 0.9 18 Noroeste 33 Oeste 0 -- -- 76
2019-11-15 07:00:00 -0.1 3 Sudoeste 11 Sur 0 -- -- 82
2019-11-15 06:00:00 -0.8 3 Sur 11 Sur 0 -- -- 78
2019-11-15 05:00:00 -1.3 4 Sudeste 15 Oeste 0 -- -- 81
2019-11-15 04:00:00 -1.5 2 Sudoeste 10 Oeste 0 -- -- 82
2019-11-15 03:00:00 -0.9 4 Sur 9 Sur 0 -- -- 84
2019-11-15 02:00:00 -0.3 0 Calma 13 Sudoeste 0 -- -- 84
2019-11-15 01:00:00 0.3 9 Oeste 20 Oeste 0 -- -- 85
2019-11-15 00:00:00 0.8 7 Oeste 25 Noroeste 0 -- -- 81
2019-11-14 23:00:00 1 12 Noroeste 26 Oeste 0 -- -- 77
2019-11-14 22:00:00 1.1 5 Oeste 22 Noroeste 0 -- -- 79
2019-11-14 21:00:00 0.5 0 Calma 13 Oeste 0 -- -- 87
2019-11-14 20:00:00 0.6 0 Calma 4 Noroeste 0 -- -- 86
2019-11-14 19:00:00 0.7 0 Calma 4 Sudoeste 0 -- -- 85
2019-11-14 18:00:00 1 0 Calma 29 Sur 0 -- -- 84
2019-11-14 17:00:00 3.2 10 Sudoeste 26 Sudoeste 0 -- -- 68
2019-11-14 16:00:00 4.1 13 Sudoeste 33 Oeste 0 -- -- 61
2019-11-14 15:00:00 5.4 15 Sudoeste 29 Sudoeste 0 -- -- 57
2019-11-14 14:00:00 4.3 15 Sudoeste 41 Sudoeste 0 -- -- 61
2019-11-14 13:00:00 4.7 23 Sudoeste 37 Sudoeste 0 -- -- 61
2019-11-14 12:00:00 4.4 14 Sudoeste 28 Sudoeste 0 -- -- 70
2019-11-14 11:00:00 3.3 6 Sur 13 Sudeste 0 -- -- 76
2019-11-14 10:00:00 1.7 4 Sur 11 Oeste 0 -- -- 78
2019-11-14 09:00:00 0.6 3 Sudoeste 13 Oeste 0 -- -- 86
2019-11-14 08:00:00 0.6 4 Oeste 15 Noroeste 0 -- -- 86
2019-11-14 07:00:00 1 10 Noroeste 32 Noroeste 0 -- -- 84
2019-11-14 06:00:00 1.7 10 Noroeste 45 Oeste 1.8 -- -- 87
2019-11-14 05:00:00 5 21 Sudoeste 58 Sudoeste 0 -- -- 76
2019-11-14 04:00:00 5.4 26 Sudoeste 45 Sudoeste 0 -- -- 74
2019-11-14 03:00:00 5.7 23 Sudoeste 46 Sudoeste 0 -- -- 69
2019-11-14 02:00:00 6 26 Sudoeste 53 Sudoeste 0 -- -- 69
2019-11-14 01:00:00 6.5 22 Sudoeste 42 Oeste 0 -- -- 67
2019-11-14 00:00:00 7.3 29 Oeste 63 Sudoeste 0 -- -- 70
2019-11-13 23:00:00 7.4 30 Sudoeste 55 Sur 0 -- -- 74
2019-11-13 22:00:00 7.7 21 Sudoeste 38 Sudoeste 0 -- -- 73
2019-11-13 21:00:00 7.1 18 Sudoeste 39 Sudoeste 0 -- -- 74
2019-11-13 20:00:00 7.1 19 Sudoeste 35 Sudoeste 0 -- -- 71
2019-11-13 19:00:00 5.8 9 Sur 17 Sudoeste 0 -- -- 73
2019-11-13 18:00:00 7.1 12 Sudoeste 19 Sudoeste 0 -- -- 63
2019-11-13 17:00:00 8 5 Noroeste 17 Oeste 0 -- -- 64
2019-11-13 16:00:00 8.3 8 Noroeste 27 Oeste 0 -- -- 60
2019-11-13 15:00:00 8.1 19 Noroeste 33 Oeste 0 -- -- 60
2019-11-13 14:00:00 7.2 4 Noroeste 28 Oeste 0 -- -- 64
2019-11-13 13:00:00 6.8 16 Oeste 49 Oeste 0 -- -- 64
2019-11-13 12:00:00 6.9 29 Noroeste 47 Noroeste 0 -- -- 66
2019-11-13 11:00:00 6.7 28 Noroeste 46 Noroeste 0 -- -- 72
2019-11-13 10:00:00 5.6 20 Noroeste 37 Noroeste 0 -- -- 80
2019-11-13 09:00:00 5 10 Noroeste 22 Norte 0 -- -- 82
2019-11-13 08:00:00 4.9 5 Noroeste 23 Noroeste 0 -- -- 82
2019-11-13 07:00:00 4.9 16 Norte 33 Noroeste 0.2 -- -- 84
2019-11-13 06:00:00 4.4 9 Nordeste 24 Norte 0.2 -- -- 89
2019-11-13 05:00:00 4.6 7 Nordeste 12 Nordeste 0.2 -- -- 88
2019-11-13 04:00:00 5.4 3 Nordeste 15 Sur 0 -- -- 86
2019-11-13 03:00:00 5.5 8 Sur 17 Sur 0 -- -- 85
2019-11-13 02:00:00 5.4 6 Sur 21 Sur 0.2 -- -- 84
2019-11-13 01:00:00 5.7 9 Sur 22 Sur 0 -- -- 80
2019-11-13 00:00:00 5.3 6 Sur 27 Sudoeste 0 -- -- 80
2019-11-12 23:00:00 5.4 12 Oeste 23 Oeste 0 -- -- 78
2019-11-12 22:00:00 5.1 9 Sudoeste 16 Sudoeste 0 -- -- 78
2019-11-12 21:00:00 5 3 Sudoeste 18 Sur 0 -- -- 79
2019-11-12 20:00:00 5.4 2 Este 6 Sudeste 0 -- -- 77
2019-11-12 19:00:00 5.5 4 Sur 10 Sudoeste 0 -- -- 75
2019-11-12 18:00:00 5.9 4 Oeste 20 Sudoeste 0 -- -- 72
2019-11-12 17:00:00 7.1 10 Sudoeste 24 Sudoeste 0 -- -- 69
2019-11-12 16:00:00 8.8 10 Oeste 26 Oeste 0 -- -- 60
2019-11-12 15:00:00 8.7 5 Oeste 30 Sudoeste 0 -- -- 61
2019-11-12 14:00:00 8.7 14 Oeste 36 Oeste 0 -- -- 59
2019-11-12 13:00:00 7.9 15 Oeste 41 Noroeste 0 -- -- 61
2019-11-12 12:00:00 7.4 17 Oeste 32 Oeste 0 -- -- 67
2019-11-12 11:00:00 5.7 10 Sudoeste 27 Sudoeste 0 -- -- 68
2019-11-12 10:00:00 5.4 12 Sudoeste 26 Sudoeste 0 -- -- 71
2019-11-12 09:00:00 4 9 Sudoeste 25 Sudoeste 0 -- -- 74
2019-11-12 08:00:00 3.7 12 Sudoeste 32 Oeste 0 -- -- 73
2019-11-12 07:00:00 3.6 12 Oeste 39 Oeste 0 -- -- 75
2019-11-12 06:00:00 3.7 14 Sur 30 Sudoeste 0 -- -- 76
2019-11-12 05:00:00 3.5 14 Sur 41 Sudoeste 0 -- -- 77
2019-11-12 04:00:00 3.4 8 Sur 22 Sudoeste 0 -- -- 78
2019-11-12 03:00:00 3.1 2 Sur 20 Sudoeste 0 -- -- 76
2019-11-12 02:00:00 2.8 7 Oeste 13 Sudoeste 0 -- -- 78
2019-11-12 01:00:00 2.4 3 Sur 21 Norte 0 -- -- 78
2019-11-12 00:00:00 3.2 10 Noroeste 30 Noroeste 0 -- -- 76
2019-11-11 23:00:00 3.4 11 Noroeste 31 Oeste 0 -- -- 78
2019-11-11 22:00:00 3.4 11 Noroeste 31 Noroeste 0 -- -- 76
2019-11-11 21:00:00 3.6 13 Noroeste 29 Noroeste 0 -- -- 75
2019-11-11 20:00:00 3.5 8 Noroeste 31 Noroeste 0 -- -- 80
2019-11-11 19:00:00 4 10 Noroeste 30 Noroeste 0 -- -- 76
2019-11-11 18:00:00 4.1 24 Noroeste 42 Oeste 0 -- -- 75
2019-11-11 17:00:00 4.9 9 Noroeste 35 Noroeste 0 -- -- 76
2019-11-11 16:00:00 5.2 22 Noroeste 54 Noroeste 0 -- -- 78
2019-11-11 15:00:00 5.9 24 Noroeste 59 Noroeste 0 -- -- 87
2019-11-11 14:00:00 6.9 31 Noroeste 51 Noroeste 0.4 -- -- 83
2019-11-11 13:00:00 7.8 26 Noroeste 50 Noroeste 0.6 -- -- 77
2019-11-11 12:00:00 5.1 0 Calma 12 Sur 0.2 -- -- 84
2019-11-11 11:00:00 4.5 8 Sur 12 Sur 0 -- -- 81
2019-11-11 10:00:00 4.3 5 Sudoeste 13 Oeste 0 -- -- 77
2019-11-11 09:00:00 3.7 3 Sudoeste 18 Sudoeste 0 -- -- 78
2019-11-11 08:00:00 3.7 9 Sudoeste 23 Sur 0 -- -- 75
2019-11-11 07:00:00 3.3 14 Sudoeste 36 Sudoeste 0 -- -- 76
2019-11-11 06:00:00 2.9 11 Sudoeste 26 Oeste 0 -- -- 79
2019-11-11 05:00:00 2.3 14 Sudoeste 22 Sudoeste 0 -- -- 81
2019-11-11 04:00:00 1.4 5 Oeste 18 Oeste 0 -- -- 84
2019-11-11 03:00:00 0.7 4 Sudeste 10 Sudeste 0 -- -- 86
2019-11-11 02:00:00 1.3 2 Oeste 16 Oeste 0 -- -- 84
2019-11-11 01:00:00 1.1 7 Oeste 19 Oeste 0 -- -- 84
2019-11-11 00:00:00 1 8 Oeste 16 Sudoeste 0 -- -- 86
2019-11-10 23:00:00 1 10 Sudoeste 18 Sudoeste 0 -- -- 85
2019-11-10 22:00:00 0.5 8 Sudoeste 15 Sur 0 -- -- 87
2019-11-10 21:00:00 1 8 Noroeste 18 Noroeste 0 -- -- 85
2019-11-10 20:00:00 1.4 9 Noroeste 31 Norte 0 -- -- 82
2019-11-10 19:00:00 1.8 13 Noroeste 27 Noroeste 0 -- -- 77
2019-11-10 18:00:00 1.5 13 Norte 38 Noroeste 0 -- -- 81
2019-11-10 17:00:00 1 3 Nordeste 26 Oeste 0 -- -- 86
2019-11-10 16:00:00 2 17 Noroeste 39 Noroeste 0 -- -- 85
2019-11-10 15:00:00 3.2 21 Noroeste 37 Oeste 0 -- -- 77
2019-11-10 14:00:00 2.6 13 Oeste 24 Oeste 0 -- -- 82
2019-11-10 13:00:00 1.9 13 Noroeste 22 Noroeste 0 -- -- 86
2019-11-10 12:00:00 1.8 7 Oeste 27 Oeste 0 -- -- 85
2019-11-10 11:00:00 1.3 11 Oeste 20 Noroeste 0 -- -- 87
2019-11-10 10:00:00 0.6 10 Noroeste 34 Oeste 0 -- -- 89
2019-11-10 09:00:00 1.4 24 Oeste 37 Oeste 0 -- -- 81
2019-11-10 08:00:00 0.9 19 Noroeste 41 Noroeste 0 -- -- 82
2019-11-10 07:00:00 1.3 16 Noroeste 42 Noroeste 0 -- -- 77
2019-11-10 06:00:00 1.6 25 Noroeste 49 Noroeste 0 -- -- 76
2019-11-10 05:00:00 1.1 21 Noroeste 59 Noroeste 0 -- -- 81
2019-11-10 04:00:00 1.6 27 Noroeste 46 Noroeste 0 -- -- 80
2019-11-10 03:00:00 1.6 28 Noroeste 64 Noroeste 0 -- -- 78
2019-11-10 02:00:00 1.9 33 Noroeste 59 Noroeste 0 -- -- 75
2019-11-10 01:00:00 2.7 33 Noroeste 57 Noroeste 0 -- -- 82
2019-11-10 00:00:00 2.8 30 Noroeste 48 Noroeste 0 -- -- 83
2019-11-09 23:00:00 2.1 15 Noroeste 29 Noroeste 0.4 -- -- 90
2019-11-09 22:00:00 2.9 18 Noroeste 40 Noroeste 1 -- -- 87
2019-11-09 21:00:00 5.8 10 Oeste 22 Sudoeste 0 -- -- 74
2019-11-09 20:00:00 6 11 Sudoeste 21 Noroeste 0 -- -- 73
2019-11-09 19:00:00 6 10 Oeste 23 Sur 0 -- -- 73
2019-11-09 18:00:00 5.9 14 Sur 23 Sur 0 -- -- 73
2019-11-09 17:00:00 8.1 6 Oeste 36 Sudoeste 0 -- -- 65
2019-11-09 16:00:00 7.1 16 Sudoeste 39 Sudoeste 0 -- -- 69
2019-11-09 15:00:00 7.3 17 Sudoeste 35 Sur 0 -- -- 70
2019-11-09 14:00:00 7.7 10 Sudoeste 30 Sudoeste 0 -- -- 67
2019-11-09 13:00:00 6.9 8 Sudoeste 24 Sur 0 -- -- 71
2019-11-09 12:00:00 6 11 Sudoeste 36 Sudoeste 0 -- -- 68
2019-11-09 11:00:00 6.2 16 Sudoeste 28 Sudoeste 0 -- -- 69
2019-11-09 10:00:00 5.6 6 Sur 21 Sudeste 0 -- -- 65
2019-11-09 09:00:00 4.1 8 Sudeste 16 Sudeste 0 -- -- 70
2019-11-09 08:00:00 2 3 Sudeste 9 Oeste 0 -- -- 79
2019-11-09 07:00:00 2.2 3 Oeste 17 Oeste 0 -- -- 80
2019-11-09 06:00:00 1.7 3 Sudoeste 8 Sur 0 -- -- 81
2019-11-09 05:00:00 2.2 3 Sudoeste 17 Noroeste 0 -- -- 80
2019-11-09 04:00:00 2.6 5 Noroeste 22 Oeste 0 -- -- 79
2019-11-09 03:00:00 2.8 14 Noroeste 42 Oeste 0 -- -- 78
2019-11-09 02:00:00 3.4 23 Noroeste 41 Oeste 0 -- -- 74
2019-11-09 01:00:00 3.3 20 Noroeste 39 Oeste 0 -- -- 74
2019-11-09 00:00:00 3.2 21 Oeste 45 Oeste 0 -- -- 70
2019-11-08 23:00:00 3 21 Noroeste 40 Oeste 0 -- -- 68
2019-11-08 22:00:00 2.9 23 Noroeste 45 Noroeste 0 -- -- 70
2019-11-08 21:00:00 3.6 30 Noroeste 51 Noroeste 0 -- -- 68
2019-11-08 20:00:00 3.3 22 Noroeste 42 Oeste 0 -- -- 75
2019-11-08 19:00:00 3.1 23 Oeste 33 Oeste 0 -- -- 82
2019-11-08 18:00:00 2.1 15 Oeste 25 Oeste 0 -- -- 88
2019-11-08 17:00:00 2 20 Oeste 31 Oeste 0 -- -- 88
2019-11-08 16:00:00 1.9 19 Oeste 51 Oeste 0.2 -- -- 89
2019-11-08 15:00:00 3.8 26 Oeste 48 Oeste 0 -- -- 76
2019-11-08 14:00:00 4.8 19 Oeste 46 Noroeste 0 -- -- 75
2019-11-08 13:00:00 4.9 29 Oeste 48 Oeste 0 -- -- 63
2019-11-08 12:00:00 6.4 24 Sudoeste 41 Sudoeste 0 -- -- 56
2019-11-08 11:00:00 4.5 19 Sudoeste 40 Noroeste 0 -- -- 60
2019-11-08 10:00:00 4.3 12 Oeste 27 Sudoeste 0 -- -- 60
2019-11-08 09:00:00 3.1 16 Oeste 39 Sudoeste 0 -- -- 65
2019-11-08 08:00:00 1.9 23 Oeste 43 Oeste 0 -- -- 68
2019-11-08 07:00:00 1.5 30 Oeste 46 Oeste 0 -- -- 72
2019-11-08 06:00:00 1.2 28 Oeste 48 Oeste 0 -- -- 73
2019-11-08 05:00:00 0.5 6 Sur 16 Oeste 0 -- -- 72
2019-11-08 04:00:00 0.5 11 Sudoeste 23 Sudoeste 0 -- -- 71
2019-11-08 03:00:00 0.6 13 Sudoeste 27 Sudoeste 0 -- -- 67
2019-11-08 02:00:00 0.1 5 Sudoeste 21 Oeste 0 -- -- 69
2019-11-08 01:00:00 0.2 5 Sudoeste 18 Sur 0 -- -- 71
2019-11-08 00:00:00 0.3 5 Sur 17 Sudeste 0 -- -- 71
2019-11-07 23:00:00 0.8 6 Sur 15 Oeste 0 -- -- 68
2019-11-07 22:00:00 1.6 10 Oeste 27 Oeste 0 -- -- 65
2019-11-07 21:00:00 2.3 15 Oeste 27 Oeste 0 -- -- 64
2019-11-07 20:00:00 2.4 8 Oeste 15 Oeste 0 -- -- 76
2019-11-07 19:00:00 2.7 10 Sudoeste 24 Sudoeste 0 -- -- 77
2019-11-07 18:00:00 3 6 Sudoeste 45 Oeste 0 -- -- 79
2019-11-07 17:00:00 6.6 16 Oeste 35 Oeste 0 -- -- 49
2019-11-07 16:00:00 6.9 17 Oeste 30 Oeste 0 -- -- 52
2019-11-07 15:00:00 7.5 20 Oeste 46 Oeste 0 -- -- 51
2019-11-07 14:00:00 8.2 18 Oeste 46 Oeste 0 -- -- 52
2019-11-07 13:00:00 7.6 8 Oeste 23 Noroeste 0 -- -- 62
2019-11-07 12:00:00 7.3 6 Noroeste 23 Noroeste 0 -- -- 68
2019-11-07 11:00:00 7.4 14 Oeste 25 Oeste 0 -- -- 68
2019-11-07 10:00:00 5.5 11 Nordeste 23 Nordeste 0 -- -- 81
2019-11-07 09:00:00 5.7 4 Sudeste 7 Este 0 -- -- 88
2019-11-07 08:00:00 5.5 2 Noroeste 12 Nordeste 0 -- -- 86
2019-11-07 07:00:00 6.2 8 Nordeste 19 Nordeste 0 -- -- 85
2019-11-07 06:00:00 7.2 0 Calma 14 Sudoeste 0 -- -- 83
2019-11-07 05:00:00 7.2 4 Oeste 18 Sudoeste 0 -- -- 84
2019-11-07 04:00:00 6.8 8 Sur 21 Sudoeste 0 -- -- 84
2019-11-07 03:00:00 6.8 9 Sudoeste 17 Sur 0 -- -- 82
2019-11-07 02:00:00 7.1 7 Oeste 30 Sudoeste 0 -- -- 78
2019-11-07 01:00:00 7.1 14 Sudoeste 31 Oeste 0 -- -- 78
2019-11-07 00:00:00 7.2 13 Oeste 36 Oeste 0 -- -- 77
2019-11-06 23:00:00 7 8 Oeste 35 Oeste 0 -- -- 77
2019-11-06 22:00:00 6.8 18 Sudoeste 30 Sudoeste 0 -- -- 77
2019-11-06 21:00:00 6.5 8 Sur 17 Sur 0 -- -- 77
2019-11-06 20:00:00 5 5 Sur 9 Sur 0 -- -- 77
2019-11-06 19:00:00 5.7 2 Sudeste 9 Sudoeste 0 -- -- 71
2019-11-06 18:00:00 7.6 6 Sudoeste 28 Noroeste 0 -- -- 63
2019-11-06 17:00:00 9.5 15 Sudoeste 30 Sudoeste 0 -- -- 57
2019-11-06 16:00:00 9.2 14 Sudoeste 30 Sudoeste 0 -- -- 60
2019-11-06 15:00:00 10.1 8 Oeste 26 Oeste 0 -- -- 53
2019-11-06 14:00:00 10 12 Oeste 28 Noroeste 0 -- -- 56
2019-11-06 13:00:00 8.9 8 Oeste 19 Oeste 0 -- -- 60
2019-11-06 12:00:00 7.6 11 Noroeste 24 Oeste 0 -- -- 65
2019-11-06 11:00:00 6.8 15 Oeste 27 Oeste 0 -- -- 70
2019-11-06 10:00:00 6.2 11 Oeste 35 Noroeste 0 -- -- 70
2019-11-06 09:00:00 6.1 19 Oeste 33 Oeste 0 -- -- 70
2019-11-06 08:00:00 5.6 9 Sur 22 Sudoeste 0 -- -- 71
2019-11-06 07:00:00 5.5 8 Sur 22 Noroeste 0 -- -- 73
2019-11-06 06:00:00 5.6 6 Noroeste 38 Noroeste 0 -- -- 73
2019-11-06 05:00:00 5.2 10 Noroeste 32 Noroeste 0 -- -- 74
2019-11-06 04:00:00 5.3 19 Noroeste 45 Oeste 0 -- -- 73
2019-11-06 03:00:00 5.4 26 Noroeste 44 Noroeste 0 -- -- 74
2019-11-06 02:00:00 5.4 20 Noroeste 34 Oeste 0 -- -- 76
2019-11-06 01:00:00 5.5 16 Noroeste 36 Noroeste 0 -- -- 76
2019-11-06 00:00:00 5.7 14 Noroeste 32 Oeste 0 -- -- 75
2019-11-05 23:00:00 5.6 13 Noroeste 24 Oeste 0 -- -- 75
2019-11-05 22:00:00 5.2 13 Oeste 29 Oeste 0 -- -- 76
2019-11-05 21:00:00 5.5 14 Oeste 36 Noroeste 0 -- -- 74
2019-11-05 20:00:00 5.4 18 Oeste 30 Oeste 0 -- -- 75
2019-11-05 19:00:00 5.2 8 Noroeste 42 Noroeste 0 -- -- 76
2019-11-05 18:00:00 6.2 23 Noroeste 54 Noroeste 0 -- -- 69
2019-11-05 17:00:00 8.8 22 Oeste 48 Oeste 0 -- -- 56
2019-11-05 16:00:00 9.4 26 Oeste 41 Oeste 0 -- -- 56
2019-11-05 15:00:00 7.5 22 Noroeste 48 Noroeste 0 -- -- 73
2019-11-05 14:00:00 10.1 27 Oeste 48 Oeste 0 -- -- 55
2019-11-05 13:00:00 8.2 16 Sudoeste 39 Oeste 0 -- -- 64
2019-11-05 12:00:00 9.1 15 Oeste 38 Sudoeste 0 -- -- 60
2019-11-05 11:00:00 6.8 23 Sudoeste 42 Sudoeste 0 -- -- 69
2019-11-05 10:00:00 7 23 Oeste 42 Oeste 0 -- -- 63
2019-11-05 09:00:00 5.4 17 Oeste 40 Oeste 0 -- -- 67
2019-11-05 08:00:00 3.8 11 Oeste 27 Oeste 0 -- -- 71
2019-11-05 07:00:00 3.6 6 Oeste 20 Sudoeste 0 -- -- 71
2019-11-05 06:00:00 3.9 6 Sudoeste 24 Oeste 0 -- -- 73
2019-11-05 05:00:00 4.6 19 Oeste 39 Sudoeste 0 -- -- 69
2019-11-05 04:00:00 4.6 15 Oeste 36 Sudoeste 0 -- -- 69
2019-11-05 03:00:00 5.1 14 Oeste 33 Oeste 0 -- -- 66
2019-11-05 02:00:00 5.7 15 Oeste 40 Oeste 0 -- -- 67
2019-11-05 01:00:00 5.4 14 Oeste 30 Sudoeste 0 -- -- 69
2019-11-05 00:00:00 5.8 12 Oeste 25 Oeste 0 -- -- 66
2019-11-04 23:00:00 6.6 10 Oeste 28 Sudoeste 0 -- -- 65
2019-11-04 22:00:00 7.2 16 Sudoeste 37 Sudoeste 0 -- -- 64
2019-11-04 21:00:00 8.5 9 Oeste 33 Sudoeste 0 -- -- 69
2019-11-04 20:00:00 9.3 12 Oeste 47 Sudoeste 0 -- -- 64
2019-11-04 19:00:00 10.6 26 Sudoeste 49 Sudoeste 0 -- -- 67
2019-11-04 18:00:00 10.5 0 Calma 28 Sudoeste 0 -- -- 81
2019-11-04 17:00:00 11.6 21 Sudoeste 40 Sudoeste 0 -- -- 77
2019-11-04 16:00:00 12.1 20 Sudoeste 54 Sudoeste 0 -- -- 77
2019-11-04 15:00:00 13.2 28 Sudoeste 60 Sudoeste 0 -- -- 69
2019-11-04 14:00:00 12.3 35 Sudoeste 61 Sudoeste 0 -- -- 72
2019-11-04 13:00:00 12 31 Sudoeste 58 Sudoeste 0 -- -- 71
2019-11-04 12:00:00 11.8 35 Sudoeste 61 Sudoeste 0 -- -- 71
2019-11-04 11:00:00 10.5 34 Sudoeste 56 Sudoeste 0 -- -- 77
2019-11-04 10:00:00 10.7 33 Sudoeste 55 Sudoeste 0 -- -- 75
2019-11-04 09:00:00 10.1 31 Sudoeste 56 Sudoeste 0 -- -- 76
2019-11-04 08:00:00 10.1 28 Sudoeste 46 Sudoeste 0 -- -- 75
2019-11-04 07:00:00 10.3 23 Oeste 47 Sudoeste 0 -- -- 73
2019-11-04 06:00:00 10.2 19 Oeste 50 Oeste 0 -- -- 70
2019-11-04 05:00:00 10.6 31 Oeste 64 Sudoeste 0 -- -- 70
2019-11-04 04:00:00 11 24 Sudoeste 45 Sudoeste 0 -- -- 75
2019-11-04 03:00:00 10.9 23 Sudoeste 45 Sudoeste 0 -- -- 76
2019-11-04 02:00:00 10.5 20 Sudoeste 44 Sudoeste 0 -- -- 77
2019-11-04 01:00:00 9.8 24 Sudoeste 48 Sudoeste 0 -- -- 78
2019-11-04 00:00:00 9.7 24 Sudoeste 50 Sudoeste 0 -- -- 74
2019-11-03 23:00:00 10 32 Sudoeste 55 Sudoeste 0 -- -- 70
2019-11-03 22:00:00 9.5 29 Sudoeste 53 Sudoeste 0 -- -- 69
2019-11-03 21:00:00 9.8 18 Oeste 32 Oeste 0 -- -- 63
2019-11-03 20:00:00 9.9 18 Oeste 31 Oeste 0 -- -- 58
2019-11-03 19:00:00 9.4 10 Noroeste 31 Oeste 0 -- -- 58
2019-11-03 18:00:00 9.4 16 Oeste 40 Oeste 0 -- -- 60
2019-11-03 17:00:00 11 26 Oeste 48 Oeste 0 -- -- 50
2019-11-03 16:00:00 11.7 27 Oeste 50 Oeste 0 -- -- 49
2019-11-03 15:00:00 12 24 Oeste 42 Oeste 0 -- -- 46
2019-11-03 14:00:00 11.4 26 Oeste 49 Oeste 0 -- -- 50
2019-11-03 13:00:00 11.4 23 Oeste 55 Oeste 0 -- -- 49
2019-11-03 12:00:00 10.3 35 Oeste 59 Oeste 0 -- -- 50
2019-11-03 11:00:00 9.6 33 Oeste 57 Oeste 0 -- -- 53
2019-11-03 10:00:00 8.7 31 Oeste 56 Noroeste 0 -- -- 57
2019-11-03 09:00:00 7.2 24 Oeste 36 Noroeste 0 -- -- 75
2019-11-03 08:00:00 7.1 25 Noroeste 48 Oeste 0 -- -- 81
2019-11-03 07:00:00 9.6 36 Oeste 63 Oeste 0.4 -- -- 73
2019-11-03 06:00:00 10.6 24 Sudoeste 56 Sudoeste 0 -- -- 71
2019-11-03 05:00:00 10.1 28 Sudoeste 59 Sudoeste 0 -- -- 73
2019-11-03 04:00:00 9.6 26 Sudoeste 62 Sudoeste 0 -- -- 75
2019-11-03 03:00:00 9.6 28 Sudoeste 63 Sudoeste 0 -- -- 76
2019-11-03 02:00:00 9.8 29 Sudoeste 63 Sudoeste 0 -- -- 74
2019-11-03 01:00:00 10.1 30 Sudoeste 65 Sudoeste 0 -- -- 70
2019-11-03 00:00:00 10 39 Sudoeste 64 Sudoeste 0 -- -- 70
2019-11-02 23:00:00 10.6 39 Sudoeste 61 Sudoeste 0 -- -- 67
2019-11-02 22:00:00 11 39 Oeste 58 Oeste 0 -- -- 67
2019-11-02 21:00:00 11.4 27 Sudoeste 56 Sudoeste 0 -- -- 65
2019-11-02 20:00:00 12.2 31 Sudoeste 54 Sudoeste 0 -- -- 69
2019-11-02 19:00:00 12.4 21 Sudoeste 39 Sudoeste 0 -- -- 70
2019-11-02 18:00:00 12.3 13 Sudoeste 40 Sudoeste 0 -- -- 74
2019-11-02 17:00:00 13.5 21 Sudoeste 45 Oeste 0 -- -- 64
2019-11-02 16:00:00 14 26 Sudoeste 46 Sudoeste 0 -- -- 65
2019-11-02 15:00:00 14.7 29 Sudoeste 46 Sudoeste 0 -- -- 63
2019-11-02 14:00:00 14.8 25 Sudoeste 42 Sudoeste 0 -- -- 66
2019-11-02 13:00:00 15 26 Sudoeste 43 Sudoeste 0 -- -- 65
2019-11-02 12:00:00 14 18 Sudoeste 40 Sudoeste 0 -- -- 74
2019-11-02 11:00:00 14.1 21 Sudoeste 38 Sudoeste 0 -- -- 73
2019-11-02 10:00:00 13.4 23 Sudoeste 38 Oeste 0 -- -- 74
2019-11-02 09:00:00 12.1 3 Sudoeste 24 Sudoeste 0 -- -- 76
2019-11-02 08:00:00 12 10 Sudoeste 24 Sudoeste 0 -- -- 77
2019-11-02 07:00:00 12.4 10 Oeste 28 Sudoeste 0 -- -- 77
2019-11-02 06:00:00 12.3 16 Sudoeste 34 Sudoeste 0 -- -- 77
2019-11-02 05:00:00 12 15 Sudoeste 30 Sudoeste 0 -- -- 78
2019-11-02 04:00:00 12.1 11 Sudoeste 25 Sudoeste 0 -- -- 77
2019-11-02 03:00:00 12.1 8 Sudoeste 25 Sur 0 -- -- 78
2019-11-02 02:00:00 12.2 13 Sudoeste 28 Sudoeste 0 -- -- 76
2019-11-02 01:00:00 12.5 10 Sudoeste 25 Sudoeste 0 -- -- 75
2019-11-02 00:00:00 12.9 12 Sudoeste 31 Sudoeste 0 -- -- 75
2019-11-01 23:00:00 13 5 Noroeste 30 Sudoeste 0 -- -- 74
2019-11-01 22:00:00 13.4 15 Oeste 30 Oeste 0 -- -- 73
2019-11-01 21:00:00 13 10 Oeste 22 Sudoeste 0 -- -- 74
2019-11-01 20:00:00 14 8 Sudeste 11 Sudeste 0 -- -- 77
2019-11-01 19:00:00 14.5 4 Noroeste 23 Sudoeste 0 -- -- 79
2019-11-01 18:00:00 15.4 11 Sudoeste 23 Sudoeste 0 -- -- 71
2019-11-01 17:00:00 16.1 13 Sudoeste 31 Sudoeste 0 -- -- 75
2019-11-01 16:00:00 16.4 17 Sudoeste 30 Sudoeste 0 -- -- 71
2019-11-01 15:00:00 16.4 16 Sudoeste 32 Sudoeste 0 -- -- 72
2019-11-01 14:00:00 17.4 21 Sudoeste 39 Sudoeste 0 -- -- 68
2019-11-01 13:00:00 17.1 20 Sudoeste 36 Sudoeste 0 -- -- 68
2019-11-01 12:00:00 18.4 14 Oeste 28 Oeste 0 -- -- 59
2019-11-01 11:00:00 16.8 9 Oeste 24 Oeste 0 -- -- 69
2019-11-01 10:00:00 15.4 13 Sudoeste 28 Sudoeste 0 -- -- 75
2019-11-01 09:00:00 12.9 0 Calma 5 Oeste 0 -- -- 84
2019-11-01 08:00:00 12 0 Calma 11 Sur 0 -- -- 85
2019-11-01 07:00:00 12.4 6 Sur 17 Sur 0 -- -- 83
2019-11-01 06:00:00 13.2 9 Sur 17 Sur 0 -- -- 81
2019-11-01 05:00:00 12.8 9 Sur 18 Sur 0 -- -- 81
2019-11-01 04:00:00 12.7 6 Sur 18 Sur 0 -- -- 81
2019-11-01 03:00:00 12.7 10 Sudoeste 20 Sudoeste 0 -- -- 82
2019-11-01 02:00:00 11 3 Sudeste 6 Sur 0 -- -- 83
2019-11-01 01:00:00 9.4 2 Sudeste 5 Sudeste 0 -- -- 84
2019-11-01 00:00:00 9 0 Calma 4 Sur 0 -- -- 84
2019-10-31 23:00:00 9.5 2 Sur 7 Sudoeste 0 -- -- 82
2019-10-31 22:00:00 9.8 0 Calma 6 Sudoeste 0 -- -- 81
2019-10-31 21:00:00 10.7 0 Calma 3 Sudeste 0 -- -- 79
2019-10-31 20:00:00 11.3 0 Calma 7 Sur 0 -- -- 76
2019-10-31 19:00:00 12.1 0 Calma 5 Sur 0 -- -- 74
2019-10-31 18:00:00 14.2 2 Sudoeste 18 Noroeste 0 -- -- 65
2019-10-31 17:00:00 15.6 12 Noroeste 22 Noroeste 0 -- -- 57
2019-10-31 16:00:00 16.3 9 Noroeste 23 Noroeste 0 -- -- 54
2019-10-31 15:00:00 17.1 9 Noroeste 28 Noroeste 0 -- -- 52
2019-10-31 14:00:00 16.5 15 Oeste 33 Noroeste 0 -- -- 54
2019-10-31 13:00:00 16 10 Noroeste 27 Noroeste 0 -- -- 56
2019-10-31 12:00:00 15.2 9 Noroeste 27 Noroeste 0 -- -- 61
2019-10-31 11:00:00 14.1 9 Noroeste 17 Oeste 0 -- -- 68
2019-10-31 10:00:00 13 5 Oeste 10 Oeste 0 -- -- 77
2019-10-31 09:00:00 11.2 0 Calma 5 Sudeste 0 -- -- 87
2019-10-31 08:00:00 9.8 2 Oeste 6 Oeste 0 -- -- 87
2019-10-31 07:00:00 10.8 3 Oeste 10 Sudoeste 0 -- -- 86
2019-10-31 06:00:00 11.4 4 Nordeste 13 Nordeste 0 -- -- 87
2019-10-31 05:00:00 10.3 0 Calma 6 Noroeste 0 -- -- 87
2019-10-31 04:00:00 10.2 0 Calma 4 Sur 0 -- -- 86
2019-10-31 03:00:00 10.5 0 Calma 4 Noroeste 0 -- -- 85
2019-10-31 02:00:00 10.8 0 Calma 5 Este 0 -- -- 85
2019-10-31 01:00:00 11.3 2 Este 5 Este 0 -- -- 83
2019-10-31 00:00:00 11.3 4 Este 9 Sur 0 -- -- 82
2019-10-30 23:00:00 12.4 2 Este 16 Sudoeste 0 -- -- 76
2019-10-30 22:00:00 12.9 10 Sur 19 Sudoeste 0 -- -- 75
2019-10-30 21:00:00 12.8 7 Sur 15 Sudoeste 0 -- -- 74
2019-10-30 20:00:00 13.2 4 Oeste 19 Sur 0 -- -- 75
2019-10-30 19:00:00 13.3 11 Sur 21 Sur 0 -- -- 77
2019-10-30 18:00:00 13.8 4 Sudoeste 20 Sudoeste 0 -- -- 75
2019-10-30 17:00:00 14.2 6 Sudoeste 26 Sudoeste 0 -- -- 73
2019-10-30 16:00:00 14.6 12 Sudoeste 27 Sudoeste 0 -- -- 72
2019-10-30 15:00:00 15.3 12 Sudoeste 30 Sudoeste 0 -- -- 69
2019-10-30 14:00:00 16.1 15 Sudoeste 31 Sudoeste 0 -- -- 66
2019-10-30 13:00:00 16.5 14 Sur 28 Sur 0 -- -- 66
2019-10-30 12:00:00 15.6 15 Sur 28 Sur 0 -- -- 69
2019-10-30 11:00:00 12.2 0 Calma 5 Este 0 -- -- 75
2019-10-30 10:00:00 8.7 0 Calma 6 Noroeste 0 -- -- 86
2019-10-30 09:00:00 4.7 0 Calma 3 Sudeste 0 -- -- 90
2019-10-30 08:00:00 2.7 0 Calma 4 Este 0 -- -- 90
2019-10-30 07:00:00 2.9 0 Calma 3 Sudoeste 0 -- -- 89
2019-10-30 06:00:00 3.5 0 Calma 4 Sur 0 -- -- 89
2019-10-30 05:00:00 4 0 Calma 3 Sudoeste 0 -- -- 88
2019-10-30 04:00:00 4.6 0 Calma 5 Oeste 0 -- -- 88
2019-10-30 03:00:00 5.1 0 Calma 2 Sudoeste 0 -- -- 87
2019-10-30 02:00:00 5.7 0 Calma 5 Sur 0 -- -- 87
2019-10-30 01:00:00 6.5 2 Sur 5 Sur 0 -- -- 87
2019-10-30 00:00:00 6.9 0 Calma 6 Sur 0 -- -- 87
2019-10-29 23:00:00 8.1 0 Calma 5 Sudoeste 0 -- -- 86
2019-10-29 22:00:00 9.3 0 Calma 5 Sudeste 0 -- -- 84
2019-10-29 21:00:00 10.5 2 Sur 11 Sudoeste 0 -- -- 83
2019-10-29 20:00:00 11.5 4 Sur 11 Sur 0 -- -- 80
2019-10-29 19:00:00 13.3 2 Sur 8 Sur 0 -- -- 76
2019-10-29 18:00:00 15.2 4 Nordeste 14 Nordeste 0 -- -- 70
2019-10-29 17:00:00 15.8 8 Nordeste 19 Nordeste 0 -- -- 66
2019-10-29 16:00:00 16.4 11 Nordeste 18 Norte 0 -- -- 63
2019-10-29 15:00:00 17.2 10 Nordeste 19 Este 0 -- -- 58
2019-10-29 14:00:00 18.8 11 Sudeste 20 Sudeste 0 -- -- 56
2019-10-29 13:00:00 18.8 5 Este 12 Este 0 -- -- 52
2019-10-29 12:00:00 17.1 0 Calma 4 Sudeste 0 -- -- 56
2019-10-29 11:00:00 13.8 0 Calma 3 Oeste 0 -- -- 70
2019-10-29 10:00:00 9.6 0 Calma 5 Este 0 -- -- 84
2019-10-29 09:00:00 7.8 2 Sur 6 Sur 0 -- -- 88
2019-10-29 08:00:00 5.7 2 Sudeste 5 Sur 0 -- -- 88
2019-10-29 07:00:00 5.9 0 Calma 3 Sur 0 -- -- 88
2019-10-29 06:00:00 5.9 0 Calma 3 Sudeste 0 -- -- 88
2019-10-29 05:00:00 5.8 2 Sudeste 3 Sudeste 0 -- -- 88
2019-10-29 04:00:00 5.9 0 Calma 3 Sur 0 -- -- 88
2019-10-29 03:00:00 6 0 Calma 3 Sudoeste 0 -- -- 87
2019-10-29 02:00:00 6.2 0 Calma 4 Sudoeste 0 -- -- 86
2019-10-29 01:00:00 6.7 0 Calma 5 Sudoeste 0 -- -- 87
2019-10-29 00:00:00 7.3 2 Sur 4 Sudeste 0 -- -- 85
2019-10-28 23:00:00 8.1 0 Calma 7 Sur 0 -- -- 85
2019-10-28 22:00:00 9 0 Calma 7 Sudoeste 0 -- -- 82
2019-10-28 21:00:00 9.9 2 Sur 4 Sudeste 0 -- -- 81
2019-10-28 20:00:00 11.7 0 Calma 8 Norte 0 -- -- 77
2019-10-28 19:00:00 13.5 3 Norte 12 Nordeste 0 -- -- 74
2019-10-28 18:00:00 15.2 10 Nordeste 19 Nordeste 0 -- -- 68
2019-10-28 17:00:00 20.1 5 Sur 15 Sur 0 -- -- 43
2019-10-28 16:00:00 20 7 Sur 16 Sudoeste 0 -- -- 49
2019-10-28 15:00:00 20.6 10 Sudoeste 21 Sudoeste 0 -- -- 48
2019-10-28 14:00:00 20.1 6 Sur 14 Sudoeste 0 -- -- 46
2019-10-28 13:00:00 19 6 Nordeste 10 Nordeste 0 -- -- 45
2019-10-28 12:00:00 16.5 3 Noroeste 4 Norte 0 -- -- 56
2019-10-28 11:00:00 13.9 2 Sudeste 5 Este 0 -- -- 70
2019-10-28 10:00:00 11.5 2 Sur 6 Sur 0 -- -- 79
2019-10-28 09:00:00 9.2 3 Este 9 Este 0 -- -- 85
2019-10-28 08:00:00 8.9 3 Noroeste 6 Sudoeste 0 -- -- 85
2019-10-28 07:00:00 9 3 Este 6 Sur 0 -- -- 85
2019-10-28 06:00:00 9.2 0 Calma 9 Sur 0 -- -- 85
2019-10-28 05:00:00 9 4 Sudeste 8 Sur 0 -- -- 85
2019-10-28 04:00:00 8.9 0 Calma 8 Este 0 -- -- 85
2019-10-28 03:00:00 8.7 0 Calma 4 Oeste 0 -- -- 86
2019-10-28 02:00:00 8.6 3 Sur 8 Este 0 -- -- 87
2019-10-28 01:00:00 8.9 0 Calma 4 Sudoeste 0 -- -- 87
2019-10-28 00:00:00 9.4 0 Calma 5 Este 0 -- -- 86
2019-10-27 23:00:00 9.8 0 Calma 5 Sudoeste 0 -- -- 85
2019-10-27 22:00:00 10.5 0 Calma 4 Oeste 0 -- -- 84
2019-10-27 21:00:00 11.4 0 Calma 6 Norte 0 -- -- 81
2019-10-27 20:00:00 12.1 3 Norte 6 Norte 0 -- -- 80
2019-10-27 19:00:00 13.1 2 Sudeste 13 Sudeste 0 -- -- 79
2019-10-27 18:00:00 13.9 3 Norte 11 Sudeste 0 -- -- 76
2019-10-27 17:00:00 16.1 8 Sudeste 14 Sudeste 0 -- -- 67
2019-10-27 16:00:00 18 7 Sudeste 16 Sudoeste 0 -- -- 59
2019-10-27 15:00:00 19.5 8 Sur 17 Sur 0 -- -- 41
2019-10-27 14:00:00 20 6 Sur 17 Sur 0 -- -- 41
2019-10-27 13:00:00 19.4 10 Sur 17 Sudoeste 0 -- -- 45
2019-10-27 12:00:00 17.5 8 Sudeste 17 Sudeste 0 -- -- 56
2019-10-27 11:00:00 11.6 0 Calma 6 Sudeste 0 -- -- 76
2019-10-27 10:00:00 7.2 4 Sudeste 6 Sudeste 0 -- -- 87
2019-10-27 09:00:00 4 0 Calma 4 Sudoeste 0 -- -- 88
2019-10-27 08:00:00 2.7 0 Calma 4 Sudoeste 0 -- -- 89
2019-10-27 07:00:00 2.6 2 Sudeste 4 Oeste 0 -- -- 88
2019-10-27 06:00:00 2.8 2 Sudeste 4 Sudeste 0 -- -- 87
2019-10-27 05:00:00 3.1 2 Sudeste 4 Sur 0 -- -- 87
2019-10-27 04:00:00 3.6 0 Calma 3 Sudeste 0 -- -- 87
2019-10-27 03:00:00 4.1 2 Sur 4 Sur 0 -- -- 86
2019-10-27 02:00:00 4.7 0 Calma 6 Sur 0 -- -- 85
2019-10-27 01:00:00 6 2 Sudoeste 4 Sudoeste 0 -- -- 84
2019-10-27 00:00:00 6.8 3 Sur 4 Sudoeste 0 -- -- 84
2019-10-26 23:00:00 7.9 2 Sudoeste 5 Oeste 0 -- -- 83
2019-10-26 22:00:00 9.4 0 Calma 5 Sudeste 0 -- -- 81
2019-10-26 21:00:00 11.1 0 Calma 8 Norte 0 -- -- 79
2019-10-26 20:00:00 12.9 6 Norte 11 Norte 0 -- -- 76
2019-10-26 19:00:00 15.8 0 Calma 17 Sudeste 0 -- -- 69
2019-10-26 18:00:00 18.7 7 Sudeste 16 Sudoeste 0 -- -- 54
2019-10-26 17:00:00 20.6 9 Sur 21 Sur 0 -- -- 44
2019-10-26 16:00:00 20.6 9 Sur 21 Sur 0 -- -- 42
2019-10-26 15:00:00 20 10 Sur 22 Sudoeste 0 -- -- 44
2019-10-26 14:00:00 19.3 12 Sur 23 Sur 0 -- -- 48
2019-10-26 13:00:00 18.7 13 Sur 20 Sur 0 -- -- 48
2019-10-26 12:00:00 14.9 2 Sudeste 6 Sudeste 0 -- -- 69
2019-10-26 11:00:00 9.2 0 Calma 2 Sur 0 -- -- 82
2019-10-26 10:00:00 4.8 0 Calma 2 Sudeste 0 -- -- 91
2019-10-26 09:00:00 2 0 Calma 5 Sudeste 0 -- -- 89
2019-10-26 08:00:00 2 0 Calma 2 Nordeste 0 -- -- 88
2019-10-26 07:00:00 2.4 0 Calma 5 Este 0 -- -- 88
2019-10-26 06:00:00 2.7 2 Oeste 5 Oeste 0 -- -- 88
2019-10-26 05:00:00 2.8 0 Calma 4 Sudoeste 0 -- -- 87
2019-10-26 04:00:00 3.3 2 Sur 9 Sudoeste 0 -- -- 87
2019-10-26 03:00:00 3.5 0 Calma 4 Sudeste 0 -- -- 86
2019-10-26 02:00:00 4.1 0 Calma 4 Sudoeste 0 -- -- 86
2019-10-26 01:00:00 4.9 0 Calma 3 Sudoeste 0 -- -- 84
2019-10-26 00:00:00 6 2 Sudoeste 5 Sur 0 -- -- 84
2019-10-25 23:00:00 7.1 0 Calma 4 Sudoeste 0 -- -- 82
2019-10-25 22:00:00 8.6 0 Calma 2 Sudoeste 0 -- -- 79
2019-10-25 21:00:00 10.9 0 Calma 5 Sudeste 0 -- -- 73
2019-10-25 20:00:00 13.4 3 Este 9 Norte 0 -- -- 66
2019-10-25 19:00:00 16.8 3 Norte 15 Sudoeste 0 -- -- 58
2019-10-25 18:00:00 19 11 Sudoeste 22 Sudoeste 0 -- -- 52
2019-10-25 17:00:00 19.3 12 Sudoeste 24 Sur 0 -- -- 55
2019-10-25 16:00:00 19.4 12 Sudoeste 28 Sudoeste 0 -- -- 57
2019-10-25 15:00:00 19 10 Sudoeste 23 Sur 0 -- -- 52
2019-10-25 14:00:00 18.4 13 Sur 22 Sudoeste 0 -- -- 53
2019-10-25 13:00:00 17.2 10 Sudeste 15 Sudeste 0 -- -- 56
2019-10-25 12:00:00 12.3 0 Calma 3 Sur 0 -- -- 74
2019-10-25 11:00:00 7.5 0 Calma 3 Sudeste 0 -- -- 88
2019-10-25 10:00:00 4.4 0 Calma 5 Sudoeste 0 -- -- 91
2019-10-25 09:00:00 2.5 4 Sur 6 Sur 0 -- -- 91
2019-10-25 08:00:00 2.6 0 Calma 4 Este 0 -- -- 90
2019-10-25 07:00:00 3 0 Calma 6 Sudoeste 0 -- -- 89
2019-10-25 06:00:00 3.2 0 Calma 4 Noroeste 0 -- -- 90
2019-10-25 05:00:00 3 0 Calma 6 Oeste 0 -- -- 89
2019-10-25 04:00:00 3.6 0 Calma 4 Sur 0 -- -- 88
2019-10-25 03:00:00 4 2 Noroeste 7 Sur 0 -- -- 88
2019-10-25 02:00:00 4.3 2 Sudeste 4 Sudeste 0 -- -- 87
2019-10-25 01:00:00 5.1 4 Nordeste 9 Sudeste 0 -- -- 86
2019-10-25 00:00:00 5.7 0 Calma 5 Noroeste 0 -- -- 85
2019-10-24 23:00:00 6.6 3 Sudoeste 8 Sur 0 -- -- 82
2019-10-24 22:00:00 8.5 0 Calma 18 Oeste 0 -- -- 76
2019-10-24 21:00:00 9.3 6 Sudoeste 12 Sudoeste 0 -- -- 75
2019-10-24 20:00:00 10.6 5 Oeste 13 Oeste 0 -- -- 75
2019-10-24 19:00:00 11.2 4 Norte 17 Nordeste 0 -- -- 73
2019-10-24 18:00:00 12.5 10 Nordeste 18 Este 0 -- -- 67
2019-10-24 17:00:00 12.7 6 Nordeste 13 Nordeste 0 -- -- 64
2019-10-24 16:00:00 13.6 4 Nordeste 15 Sudoeste 0 -- -- 57
2019-10-24 15:00:00 13.6 8 Oeste 17 Oeste 0 -- -- 59
2019-10-24 14:00:00 11.6 4 Oeste 25 Oeste 0 -- -- 55
2019-10-24 13:00:00 12.1 6 Oeste 20 Oeste 0 -- -- 57
2019-10-24 12:00:00 10.3 7 Oeste 15 Sudoeste 0 -- -- 63
2019-10-24 11:00:00 8.6 3 Sudoeste 19 Oeste 0 -- -- 69
2019-10-24 10:00:00 6.9 3 Sudoeste 12 Oeste 0 -- -- 79
2019-10-24 09:00:00 5.2 0 Calma 6 Sur 0 -- -- 86
2019-10-24 08:00:00 5.7 0 Calma 11 Oeste 0 -- -- 83
2019-10-24 07:00:00 5.9 4 Oeste 9 Oeste 0 -- -- 86
2019-10-24 06:00:00 6 5 Oeste 15 Oeste 0 -- -- 86
2019-10-24 05:00:00 6.4 8 Oeste 14 Oeste 0 -- -- 84
2019-10-24 04:00:00 6.7 8 Oeste 14 Oeste 0 -- -- 85
2019-10-24 03:00:00 7.1 2 Oeste 6 Oeste 0 -- -- 89
2019-10-24 02:00:00 7.1 3 Sudeste 7 Sudoeste 0 -- -- 88
2019-10-24 01:00:00 7.2 0 Calma 4 Sudeste 0 -- -- 88
2019-10-24 00:00:00 7.2 3 Sudeste 7 Sur 0 -- -- 86
2019-10-23 23:00:00 7.4 0 Calma 6 Oeste 0 -- -- 86
2019-10-23 22:00:00 7.3 2 Sur 8 Sur 0 -- -- 84
2019-10-23 21:00:00 7.6 2 Sur 6 Sur 0.2 -- -- 84
2019-10-23 20:00:00 7.9 0 Calma 22 Sudoeste 0 -- -- 81
2019-10-23 19:00:00 8.1 11 Sudoeste 26 Sudoeste 0 -- -- 79
2019-10-23 18:00:00 8.8 14 Sur 30 Sur 0 -- -- 75
2019-10-23 17:00:00 9.7 14 Sur 26 Sudoeste 0 -- -- 78
2019-10-23 16:00:00 9.4 11 Sur 21 Sur 0 -- -- 79
2019-10-23 15:00:00 10 9 Sudeste 19 Este 0 -- -- 81
2019-10-23 14:00:00 9.7 5 Nordeste 10 Nordeste 0 -- -- 83
2019-10-23 13:00:00 9.2 3 Este 13 Este 0.2 -- -- 85
2019-10-23 12:00:00 8.2 4 Este 17 Nordeste 0 -- -- 85
2019-10-23 11:00:00 8.2 9 Noroeste 20 Oeste 0 -- -- 84
2019-10-23 10:00:00 6.8 6 Norte 11 Noroeste 0.4 -- -- 90
2019-10-23 09:00:00 6.7 3 Sudeste 10 Sur 0 -- -- 90
2019-10-23 08:00:00 7 4 Sudeste 13 Sudeste 0 -- -- 90
2019-10-23 07:00:00 7.7 3 Nordeste 7 Norte 0 -- -- 91
2019-10-23 06:00:00 7.6 0 Calma 17 Este 0 -- -- 91
2019-10-23 05:00:00 7.3 4 Nordeste 17 Nordeste 0 -- -- 91
2019-10-23 04:00:00 6.9 6 Nordeste 11 Nordeste 0 -- -- 91
2019-10-23 03:00:00 6.4 4 Nordeste 19 Norte 0 -- -- 90
2019-10-23 02:00:00 6 3 Nordeste 11 Nordeste 0 -- -- 89
2019-10-23 01:00:00 6 5 Nordeste 12 Nordeste 0 -- -- 87
2019-10-23 00:00:00 6 6 Norte 18 Norte 0 -- -- 86
2019-10-22 23:00:00 5.8 3 Sur 19 Oeste 0 -- -- 85
2019-10-22 22:00:00 5.7 3 Noroeste 20 Oeste 0 -- -- 84
2019-10-22 21:00:00 5.7 6 Noroeste 29 Noroeste 0 -- -- 82
2019-10-22 20:00:00 5.6 10 Noroeste 36 Noroeste 0 -- -- 82
2019-10-22 19:00:00 5.6 6 Noroeste 33 Noroeste 0 -- -- 82
2019-10-22 18:00:00 5.9 10 Noroeste 43 Norte 0 -- -- 82
2019-10-22 17:00:00 5.7 20 Noroeste 45 Noroeste 0 -- -- 87
2019-10-22 16:00:00 6.3 14 Norte 33 Norte 0 -- -- 82
2019-10-22 15:00:00 6.8 9 Noroeste 28 Noroeste 0 -- -- 78
2019-10-22 14:00:00 6.7 9 Noroeste 23 Noroeste 0 -- -- 78
2019-10-22 13:00:00 6.5 5 Norte 23 Norte 0 -- -- 77
2019-10-22 12:00:00 6.9 10 Norte 23 Norte 0 -- -- 72
2019-10-22 11:00:00 6.6 11 Norte 22 Nordeste 0 -- -- 73
2019-10-22 10:00:00 4 5 Sudeste 10 Este 0 -- -- 86
2019-10-22 09:00:00 2.9 0 Calma 8 Sudeste 0 -- -- 87
2019-10-22 08:00:00 1.9 4 Sudeste 9 Este 0 -- -- 88
2019-10-22 07:00:00 0.9 0 Calma 5 Oeste 0 -- -- 89
2019-10-22 06:00:00 0.3 0 Calma 5 Oeste 0 -- -- 89
2019-10-22 05:00:00 -0.5 0 Calma 3 Sudeste 0 -- -- 88
2019-10-22 04:00:00 -0.4 0 Calma 3 Sudeste 0 -- -- 88
2019-10-22 03:00:00 -0.5 3 Sur 5 Sur 0 -- -- 87
2019-10-22 02:00:00 -0.3 0 Calma 2 Sudoeste 0 -- -- 86
2019-10-22 01:00:00 0.5 0 Calma 3 Sur 0 -- -- 86
2019-10-22 00:00:00 1.1 0 Calma 4 Sudoeste 0 -- -- 85
2019-10-21 23:00:00 1.9 0 Calma 4 Oeste 0 -- -- 84
2019-10-21 22:00:00 3 2 Sudeste 6 Sudeste 0 -- -- 82
2019-10-21 21:00:00 4.8 0 Calma 4 Norte 0 -- -- 77
2019-10-21 20:00:00 6.6 0 Calma 9 Nordeste 0 -- -- 71
2019-10-21 19:00:00 8 5 Nordeste 19 Nordeste 0 -- -- 65
2019-10-21 18:00:00 9.3 7 Nordeste 24 Este 0 -- -- 61
2019-10-21 17:00:00 9.5 12 Este 26 Este 0 -- -- 61
2019-10-21 16:00:00 10 11 Nordeste 19 Nordeste 0 -- -- 59
2019-10-21 15:00:00 12.1 8 Sudeste 20 Sudeste 0 -- -- 50
2019-10-21 14:00:00 11.5 10 Sudeste 17 Sudeste 0 -- -- 54
2019-10-21 13:00:00 10.7 6 Este 13 Sudeste 0 -- -- 56
2019-10-21 12:00:00 8.7 3 Sudeste 6 Sudeste 0 -- -- 60
2019-10-21 11:00:00 6.2 0 Calma 4 Este 0 -- -- 75
2019-10-21 10:00:00 2.8 0 Calma 3 Sur 0 -- -- 87
2019-10-21 09:00:00 0.7 0 Calma 8 Sur 0 -- -- 87
2019-10-21 08:00:00 1.2 0 Calma 6 Sur 0 -- -- 87
2019-10-21 07:00:00 1.4 0 Calma 5 Este 0 -- -- 88
2019-10-21 06:00:00 1.1 0 Calma 5 Sur 0 -- -- 87
2019-10-21 05:00:00 1.3 0 Calma 5 Sur 0 -- -- 87
2019-10-21 04:00:00 1.9 3 Sur 5 Oeste 0 -- -- 85
2019-10-21 03:00:00 2.7 0 Calma 7 Sudoeste 0 -- -- 83
2019-10-21 02:00:00 3.9 5 Sudoeste 11 Sudoeste 0 -- -- 79
2019-10-21 01:00:00 4 2 Sudeste 13 Noroeste 0 -- -- 82
2019-10-21 00:00:00 4.8 0 Calma 16 Oeste 0 -- -- 78
2019-10-20 23:00:00 5.5 10 Oeste 23 Noroeste 0 -- -- 78
2019-10-20 22:00:00 6.1 9 Noroeste 19 Noroeste 0 -- -- 77
2019-10-20 21:00:00 6.2 9 Oeste 16 Oeste 0 -- -- 82
2019-10-20 20:00:00 6.7 7 Noroeste 19 Oeste 0 -- -- 80
2019-10-20 19:00:00 7.7 11 Oeste 18 Oeste 0 -- -- 79
2019-10-20 18:00:00 7.9 6 Noroeste 22 Oeste 0 -- -- 78
2019-10-20 17:00:00 9.2 11 Sur 31 Sudeste 0 -- -- 73
2019-10-20 16:00:00 11.4 11 Oeste 26 Sudoeste 0 -- -- 59
2019-10-20 15:00:00 11.1 8 Sudoeste 32 Oeste 0 -- -- 59
2019-10-20 14:00:00 12.3 13 Sudoeste 29 Oeste 0 -- -- 55
2019-10-20 13:00:00 10.7 14 Oeste 31 Oeste 0 -- -- 58
2019-10-20 12:00:00 10.8 14 Sudoeste 39 Sudoeste 0 -- -- 63
2019-10-20 11:00:00 9.1 15 Sudoeste 26 Sudoeste 0 -- -- 67
2019-10-20 10:00:00 7.8 10 Sudoeste 22 Sudoeste 0 -- -- 75
2019-10-20 09:00:00 7.2 8 Sudoeste 17 Sudoeste 0 -- -- 76
2019-10-20 08:00:00 7.7 3 Sudoeste 12 Norte 0 -- -- 75
2019-10-20 07:00:00 8 6 Oeste 14 Oeste 0 -- -- 75
2019-10-20 06:00:00 8.8 12 Sudoeste 29 Sudoeste 0 -- -- 75
2019-10-20 05:00:00 9.5 16 Sudoeste 42 Sur 0 -- -- 82
2019-10-20 04:00:00 10.2 21 Sur 41 Sur 0 -- -- 81
2019-10-20 03:00:00 10.5 18 Sur 47 Sur 0 -- -- 81
2019-10-20 02:00:00 9.6 5 Sudeste 24 Oeste 0 -- -- 85
2019-10-20 01:00:00 10.2 8 Sudoeste 29 Sur 0 -- -- 84
2019-10-20 00:00:00 11 17 Sur 30 Sur 0.4 -- -- 82
2019-10-19 23:00:00 11.4 4 Oeste 19 Sur 0 -- -- 79
2019-10-19 22:00:00 11.4 10 Sur 45 Sudoeste 0 -- -- 79
2019-10-19 21:00:00 11.6 21 Sur 41 Sur 0 -- -- 77
2019-10-19 20:00:00 11.8 15 Sur 40 Sur 0 -- -- 73
2019-10-19 19:00:00 12.6 15 Sur 39 Sur 0 -- -- 67
2019-10-19 18:00:00 14.5 13 Sur 33 Sur 0 -- -- 55
2019-10-19 17:00:00 15.1 19 Sur 39 Sudeste 0 -- -- 54
2019-10-19 16:00:00 15.2 15 Sur 37 Sur 0 -- -- 56
2019-10-19 15:00:00 14.1 18 Sur 34 Sur 0 -- -- 60
2019-10-19 14:00:00 10.9 7 Sur 31 Sudoeste 0 -- -- 70
2019-10-19 13:00:00 11.1 19 Sur 35 Sudeste 0 -- -- 69
2019-10-19 12:00:00 11.1 15 Sur 24 Sudeste 0 -- -- 70
2019-10-19 11:00:00 10.5 12 Sudoeste 29 Sur 0 -- -- 76
2019-10-19 10:00:00 9.9 11 Sur 29 Sur 0 -- -- 78
2019-10-19 09:00:00 9.9 13 Sur 25 Sudoeste 0 -- -- 77
2019-10-19 08:00:00 9.9 11 Sur 19 Sur 0 -- -- 77
2019-10-19 07:00:00 10 5 Sudeste 10 Sudeste 0 -- -- 78
2019-10-19 06:00:00 10.5 0 Calma 14 Sudoeste 0 -- -- 77
2019-10-19 05:00:00 10.9 8 Sur 17 Sur 0 -- -- 80
2019-10-19 04:00:00 11.2 6 Sur 13 Sur 0 -- -- 81
2019-10-19 03:00:00 11.6 6 Sur 14 Sur 0 -- -- 80
2019-10-19 02:00:00 11.7 3 Sur 16 Oeste 0 -- -- 78
2019-10-19 01:00:00 11.5 5 Sur 13 Sur 0 -- -- 78
2019-10-19 00:00:00 12.2 6 Sur 19 Sur 0 -- -- 77
2019-10-18 23:00:00 12.7 13 Sur 20 Sur 0 -- -- 74
2019-10-18 22:00:00 12.6 7 Sur 14 Sudoeste 0 -- -- 73
2019-10-18 21:00:00 12.5 7 Sudoeste 14 Sur 0 -- -- 74
2019-10-18 20:00:00 13.1 7 Sur 21 Sudoeste 0 -- -- 70
2019-10-18 19:00:00 15 9 Sudoeste 23 Sudoeste 0 -- -- 62
2019-10-18 18:00:00 15 16 Sudoeste 34 Oeste 0 -- -- 61
2019-10-18 17:00:00 14.9 24 Sudoeste 41 Sudoeste 0 -- -- 57
2019-10-18 16:00:00 14.9 20 Sudoeste 36 Oeste 0 -- -- 59
2019-10-18 15:00:00 15 17 Sudoeste 35 Sudoeste 0 -- -- 63
2019-10-18 14:00:00 16.2 20 Sudoeste 36 Sudoeste 0 -- -- 66
2019-10-18 13:00:00 15.2 14 Sur 29 Sudoeste 0 -- -- 73
2019-10-18 12:00:00 14.1 9 Sudoeste 19 Sur 0 -- -- 78
2019-10-18 11:00:00 12.7 0 Calma 19 Sur 0 -- -- 85
2019-10-18 10:00:00 12 11 Sur 19 Sudoeste 0 -- -- 87
2019-10-18 09:00:00 -- -- -- -- -- -- -- -- --
2019-10-18 08:00:00 11.9 0 Calma 15 Oeste 0 -- -- 86
2019-10-18 07:00:00 12.4 6 Oeste 16 Noroeste 0 -- -- 84
2019-10-18 06:00:00 11.8 6 Sudoeste 12 Sur 0 -- -- 87
2019-10-18 05:00:00 11.6 2 Sur 13 Sudoeste 0 -- -- 88
2019-10-18 04:00:00 11.3 3 Sur 11 Sudoeste 0 -- -- 87
2019-10-18 03:00:00 11 2 Sur 17 Sur 0 -- -- 87
2019-10-18 02:00:00 11 13 Sur 30 Sur 0 -- -- 86
2019-10-18 01:00:00 10.5 10 Sur 37 Sur 0 -- -- 86
2019-10-18 00:00:00 10.2 18 Sur 38 Sur 0 -- -- 86